LiveATC.Net - Listen to live air traffic control over the Internet! Contact for advertising information

ICAO: KRVS  IATA: RVS   Airport: Richard Lloyd Jones Jr Airport
City: Tulsa   State/Province: Oklahoma
Country: United States   Continent: North America
KRVS METAR Weather: KRVS 070353Z 01003KT 10SM CLR 17/14 A3012 RMK AO2 SLP204 T01720144
KRVS Flight Activity (FlightAware)
KRVS Airport Info   (AirNav) (iFlightPlanner)
KRVS VFR Sectional Chart   (iFlightPlanner) 
KRVS IFR Low Chart   (iFlightPlanner) 
KRVS Ground/Tower
Feed Status: UP   Listeners: 2
Listen right in your browser - requires Flash (in browser, requires Flash)
Click here to listen with your own player (launches your MP3 player)
KRVS Ground/Tower Audio Archives
Riverside Ground121.700
Riverside Tower (East)119.200
Riverside Tower (West)120.300


Unauthorized use prohibited. See Terms of Service

Find LiveATC Audio Streams

Airport/ARTCC Code

(e.g., 124.400, 128.75)
Site-wide search

Browse LiveATC Feeds
LiveATC Coverage Map
Top 50 LiveATC Feeds
Bad Weather Areas

Offer a LiveATC Feed
Press Inquiries

LiveATC on iPhone
LiveATC on Android

LiveATC Mobile
(Mobile browser)

ATC Audio Archives
Interesting Recordings

LiveATC Forums

Home Page
Make a Donation
LiveATC Bookstore

Terms of Use
Privacy Policy

ATC/Radar Sites
U.S. ARTCC Freqs
Canadian Air Freqs


FAA Airport Status
Nat'l Airspace Status
Arrival Demand Charts

Server Software By:

Please make a donation to help us keep growing!